sensor_id;sensor_type;location;lat;lon;timestamp;P1;durP1;ratioP1;P2;durP2;ratioP2
30307;SDS011;17114;52.314;8.910;2023-07-24T00:00:14;7.68;;;5.68;;
30307;SDS011;17114;52.314;8.910;2023-07-24T00:02:41;6.45;;;5.00;;
30307;SDS011;17114;52.314;8.910;2023-07-24T00:05:08;9.85;;;5.82;;
30307;SDS011;17114;52.314;8.910;2023-07-24T00:07:36;6.80;;;6.10;;
30307;SDS011;17114;52.314;8.910;2023-07-24T00:10:03;6.65;;;5.75;;
30307;SDS011;17114;52.314;8.910;2023-07-24T00:12:30;6.70;;;5.63;;
30307;SDS011;17114;52.314;8.910;2023-07-24T00:14:58;6.43;;;5.80;;
30307;SDS011;17114;52.314;8.910;2023-07-24T00:17:24;8.68;;;5.97;;
30307;SDS011;17114;52.314;8.910;2023-07-24T00:19:51;11.18;;;6.10;;
30307;SDS011;17114;52.314;8.910;2023-07-24T00:22:18;8.20;;;5.50;;
30307;SDS011;17114;52.314;8.910;2023-07-24T00:24:45;5.75;;;5.20;;
30307;SDS011;17114;52.314;8.910;2023-07-24T00:27:12;6.28;;;5.45;;
30307;SDS011;17114;52.314;8.910;2023-07-24T00:29:40;7.13;;;5.57;;
30307;SDS011;17114;52.314;8.910;2023-07-24T00:32:07;6.43;;;5.70;;
30307;SDS011;17114;52.314;8.910;2023-07-24T00:34:34;8.00;;;6.22;;
30307;SDS011;17114;52.314;8.910;2023-07-24T00:37:01;6.97;;;6.03;;
30307;SDS011;17114;52.314;8.910;2023-07-24T00:39:27;6.55;;;5.82;;
30307;SDS011;17114;52.314;8.910;2023-07-24T00:41:55;8.43;;;6.13;;
30307;SDS011;17114;52.314;8.910;2023-07-24T00:44:22;8.27;;;6.63;;
30307;SDS011;17114;52.314;8.910;2023-07-24T00:46:49;9.30;;;6.93;;
30307;SDS011;17114;52.314;8.910;2023-07-24T00:49:17;7.47;;;6.72;;
30307;SDS011;17114;52.314;8.910;2023-07-24T00:51:44;10.15;;;7.25;;
30307;SDS011;17114;52.314;8.910;2023-07-24T00:54:11;7.82;;;7.03;;
30307;SDS011;17114;52.314;8.910;2023-07-24T00:56:41;8.38;;;7.18;;
30307;SDS011;17114;52.314;8.910;2023-07-24T00:59:08;11.40;;;6.97;;
30307;SDS011;17114;52.314;8.910;2023-07-24T01:01:36;10.98;;;7.65;;
30307;SDS011;17114;52.314;8.910;2023-07-24T01:04:04;12.38;;;8.15;;
30307;SDS011;17114;52.314;8.910;2023-07-24T01:06:32;10.13;;;8.65;;
30307;SDS011;17114;52.314;8.910;2023-07-24T01:08:59;12.55;;;9.18;;
30307;SDS011;17114;52.314;8.910;2023-07-24T01:11:46;11.95;;;9.23;;
30307;SDS011;17114;52.314;8.910;2023-07-24T01:17:18;12.63;;;9.40;;
30307;SDS011;17114;52.314;8.910;2023-07-24T01:19:51;11.13;;;9.18;;
30307;SDS011;17114;52.314;8.910;2023-07-24T01:25:03;13.73;;;9.88;;
30307;SDS011;17114;52.314;8.910;2023-07-24T01:27:48;11.57;;;10.38;;
30307;SDS011;17114;52.314;8.910;2023-07-24T01:30:19;13.18;;;10.00;;
30307;SDS011;17114;52.314;8.910;2023-07-24T01:32:46;12.90;;;9.63;;
30307;SDS011;17114;52.314;8.910;2023-07-24T01:35:14;12.60;;;9.18;;
30307;SDS011;17114;52.314;8.910;2023-07-24T01:37:41;11.25;;;8.63;;
30307;SDS011;17114;52.314;8.910;2023-07-24T01:40:09;11.45;;;8.82;;
30307;SDS011;17114;52.314;8.910;2023-07-24T01:42:37;11.43;;;8.88;;
30307;SDS011;17114;52.314;8.910;2023-07-24T01:45:04;9.43;;;8.30;;
30307;SDS011;17114;52.314;8.910;2023-07-24T01:47:32;10.00;;;8.00;;
30307;SDS011;17114;52.314;8.910;2023-07-24T01:49:59;12.40;;;9.23;;
30307;SDS011;17114;52.314;8.910;2023-07-24T01:52:26;10.02;;;8.20;;
30307;SDS011;17114;52.314;8.910;2023-07-24T01:54:53;11.48;;;8.95;;
30307;SDS011;17114;52.314;8.910;2023-07-24T01:57:20;14.15;;;8.52;;
30307;SDS011;17114;52.314;8.910;2023-07-24T01:59:46;10.68;;;9.30;;
30307;SDS011;17114;52.314;8.910;2023-07-24T02:02:15;11.18;;;8.85;;
30307;SDS011;17114;52.314;8.910;2023-07-24T02:04:42;12.15;;;9.27;;
30307;SDS011;17114;52.314;8.910;2023-07-24T02:07:09;12.40;;;10.32;;
30307;SDS011;17114;52.314;8.910;2023-07-24T02:09:36;12.40;;;9.93;;
30307;SDS011;17114;52.314;8.910;2023-07-24T02:12:03;12.00;;;9.13;;
30307;SDS011;17114;52.314;8.910;2023-07-24T02:14:30;12.85;;;9.07;;
30307;SDS011;17114;52.314;8.910;2023-07-24T02:16:57;13.02;;;9.18;;
30307;SDS011;17114;52.314;8.910;2023-07-24T02:19:23;11.00;;;8.98;;
30307;SDS011;17114;52.314;8.910;2023-07-24T02:21:50;9.40;;;8.13;;
30307;SDS011;17114;52.314;8.910;2023-07-24T02:24:17;9.93;;;8.63;;
30307;SDS011;17114;52.314;8.910;2023-07-24T02:26:44;10.07;;;7.68;;
30307;SDS011;17114;52.314;8.910;2023-07-24T02:29:11;9.82;;;7.78;;
30307;SDS011;17114;52.314;8.910;2023-07-24T02:31:38;10.02;;;7.22;;
30307;SDS011;17114;52.314;8.910;2023-07-24T02:34:05;8.18;;;6.88;;
30307;SDS011;17114;52.314;8.910;2023-07-24T02:36:31;8.35;;;6.43;;
30307;SDS011;17114;52.314;8.910;2023-07-24T02:38:58;10.43;;;6.43;;
30307;SDS011;17114;52.314;8.910;2023-07-24T02:41:25;9.98;;;6.35;;
30307;SDS011;17114;52.314;8.910;2023-07-24T02:43:52;7.10;;;5.80;;
30307;SDS011;17114;52.314;8.910;2023-07-24T02:46:19;13.77;;;5.78;;
30307;SDS011;17114;52.314;8.910;2023-07-24T02:48:46;10.20;;;5.32;;
30307;SDS011;17114;52.314;8.910;2023-07-24T02:51:13;8.65;;;5.30;;
30307;SDS011;17114;52.314;8.910;2023-07-24T02:53:40;8.95;;;5.65;;
30307;SDS011;17114;52.314;8.910;2023-07-24T02:56:07;8.02;;;4.85;;
30307;SDS011;17114;52.314;8.910;2023-07-24T02:58:34;9.68;;;4.53;;
30307;SDS011;17114;52.314;8.910;2023-07-24T03:01:04;6.60;;;4.00;;
30307;SDS011;17114;52.314;8.910;2023-07-24T03:03:33;8.32;;;4.35;;
30307;SDS011;17114;52.314;8.910;2023-07-24T03:06:01;6.72;;;4.28;;
30307;SDS011;17114;52.314;8.910;2023-07-24T03:08:28;6.10;;;3.88;;
30307;SDS011;17114;52.314;8.910;2023-07-24T03:10:54;6.47;;;3.80;;
30307;SDS011;17114;52.314;8.910;2023-07-24T03:13:21;6.95;;;4.13;;
30307;SDS011;17114;52.314;8.910;2023-07-24T03:15:57;7.43;;;4.07;;
30307;SDS011;17114;52.314;8.910;2023-07-24T03:18:25;10.07;;;4.47;;
30307;SDS011;17114;52.314;8.910;2023-07-24T03:20:52;6.63;;;3.92;;
30307;SDS011;17114;52.314;8.910;2023-07-24T03:23:19;10.02;;;4.63;;
30307;SDS011;17114;52.314;8.910;2023-07-24T03:25:46;10.35;;;4.18;;
30307;SDS011;17114;52.314;8.910;2023-07-24T03:28:13;9.32;;;4.00;;
30307;SDS011;17114;52.314;8.910;2023-07-24T03:30:40;8.25;;;4.05;;
30307;SDS011;17114;52.314;8.910;2023-07-24T03:33:07;7.47;;;4.20;;
30307;SDS011;17114;52.314;8.910;2023-07-24T03:35:34;6.40;;;4.05;;
30307;SDS011;17114;52.314;8.910;2023-07-24T03:38:01;5.35;;;3.67;;
30307;SDS011;17114;52.314;8.910;2023-07-24T03:40:28;7.20;;;3.83;;
30307;SDS011;17114;52.314;8.910;2023-07-24T03:42:55;9.82;;;4.05;;
30307;SDS011;17114;52.314;8.910;2023-07-24T03:45:22;5.97;;;3.90;;
30307;SDS011;17114;52.314;8.910;2023-07-24T03:47:48;6.10;;;4.35;;
30307;SDS011;17114;52.314;8.910;2023-07-24T03:50:16;7.97;;;4.15;;
30307;SDS011;17114;52.314;8.910;2023-07-24T03:52:43;10.45;;;3.85;;
30307;SDS011;17114;52.314;8.910;2023-07-24T03:55:10;7.57;;;4.35;;
30307;SDS011;17114;52.314;8.910;2023-07-24T03:57:37;11.00;;;4.30;;
30307;SDS011;17114;52.314;8.910;2023-07-24T04:00:04;10.30;;;3.90;;
30307;SDS011;17114;52.314;8.910;2023-07-24T04:02:31;6.60;;;4.50;;
30307;SDS011;17114;52.314;8.910;2023-07-24T04:04:58;6.22;;;4.13;;
30307;SDS011;17114;52.314;8.910;2023-07-24T04:07:25;10.93;;;3.95;;
30307;SDS011;17114;52.314;8.910;2023-07-24T04:09:52;5.70;;;3.97;;
30307;SDS011;17114;52.314;8.910;2023-07-24T04:12:20;5.53;;;4.28;;
30307;SDS011;17114;52.314;8.910;2023-07-24T04:14:47;8.38;;;4.22;;
30307;SDS011;17114;52.314;8.910;2023-07-24T04:17:15;7.55;;;4.28;;
30307;SDS011;17114;52.314;8.910;2023-07-24T04:19:42;6.18;;;3.63;;
30307;SDS011;17114;52.314;8.910;2023-07-24T04:22:09;6.95;;;3.70;;
30307;SDS011;17114;52.314;8.910;2023-07-24T04:24:36;6.00;;;3.65;;
30307;SDS011;17114;52.314;8.910;2023-07-24T04:27:03;6.05;;;3.75;;
30307;SDS011;17114;52.314;8.910;2023-07-24T04:29:30;8.75;;;3.40;;
30307;SDS011;17114;52.314;8.910;2023-07-24T04:31:56;5.03;;;3.70;;
30307;SDS011;17114;52.314;8.910;2023-07-24T04:34:23;5.68;;;3.42;;
30307;SDS011;17114;52.314;8.910;2023-07-24T04:36:50;6.40;;;3.40;;
30307;SDS011;17114;52.314;8.910;2023-07-24T04:39:17;7.22;;;3.65;;
30307;SDS011;17114;52.314;8.910;2023-07-24T04:41:44;5.05;;;3.70;;
30307;SDS011;17114;52.314;8.910;2023-07-24T04:44:11;5.35;;;3.45;;
30307;SDS011;17114;52.314;8.910;2023-07-24T04:46:38;7.72;;;3.83;;
30307;SDS011;17114;52.314;8.910;2023-07-24T04:49:04;5.70;;;3.33;;
30307;SDS011;17114;52.314;8.910;2023-07-24T04:51:31;6.10;;;3.17;;
30307;SDS011;17114;52.314;8.910;2023-07-24T04:54:01;6.70;;;3.20;;
30307;SDS011;17114;52.314;8.910;2023-07-24T04:56:28;4.38;;;3.05;;
30307;SDS011;17114;52.314;8.910;2023-07-24T04:58:56;5.60;;;3.47;;
30307;SDS011;17114;52.314;8.910;2023-07-24T05:01:23;4.88;;;3.20;;
30307;SDS011;17114;52.314;8.910;2023-07-24T05:03:50;9.73;;;3.55;;
30307;SDS011;17114;52.314;8.910;2023-07-24T05:06:17;5.57;;;3.35;;
30307;SDS011;17114;52.314;8.910;2023-07-24T05:08:43;5.00;;;3.03;;
30307;SDS011;17114;52.314;8.910;2023-07-24T05:11:10;5.43;;;3.45;;
30307;SDS011;17114;52.314;8.910;2023-07-24T05:13:37;5.07;;;3.05;;
30307;SDS011;17114;52.314;8.910;2023-07-24T05:16:04;8.43;;;3.90;;
30307;SDS011;17114;52.314;8.910;2023-07-24T05:18:31;7.13;;;3.30;;
30307;SDS011;17114;52.314;8.910;2023-07-24T05:20:58;7.40;;;3.25;;
30307;SDS011;17114;52.314;8.910;2023-07-24T05:23:25;7.45;;;3.33;;
30307;SDS011;17114;52.314;8.910;2023-07-24T05:25:58;4.38;;;3.22;;
30307;SDS011;17114;52.314;8.910;2023-07-24T05:28:30;4.38;;;3.50;;
30307;SDS011;17114;52.314;8.910;2023-07-24T05:31:01;6.68;;;3.42;;
30307;SDS011;17114;52.314;8.910;2023-07-24T05:33:29;9.73;;;3.80;;
30307;SDS011;17114;52.314;8.910;2023-07-24T05:35:58;4.75;;;3.58;;
30307;SDS011;17114;52.314;8.910;2023-07-24T05:38:25;7.88;;;3.60;;
30307;SDS011;17114;52.314;8.910;2023-07-24T05:40:59;10.20;;;3.88;;
30307;SDS011;17114;52.314;8.910;2023-07-24T05:43:27;8.43;;;3.55;;
30307;SDS011;17114;52.314;8.910;2023-07-24T05:45:55;7.13;;;4.20;;
30307;SDS011;17114;52.314;8.910;2023-07-24T05:48:23;7.43;;;4.28;;
30307;SDS011;17114;52.314;8.910;2023-07-24T05:50:50;8.05;;;4.18;;
30307;SDS011;17114;52.314;8.910;2023-07-24T05:53:17;6.28;;;4.45;;
30307;SDS011;17114;52.314;8.910;2023-07-24T05:55:45;6.57;;;4.07;;
30307;SDS011;17114;52.314;8.910;2023-07-24T05:58:11;9.18;;;4.57;;
30307;SDS011;17114;52.314;8.910;2023-07-24T06:00:41;8.43;;;4.53;;
30307;SDS011;17114;52.314;8.910;2023-07-24T06:03:07;9.68;;;4.45;;
30307;SDS011;17114;52.314;8.910;2023-07-24T06:05:34;8.80;;;4.65;;
30307;SDS011;17114;52.314;8.910;2023-07-24T06:08:01;7.70;;;5.10;;
30307;SDS011;17114;52.314;8.910;2023-07-24T06:10:28;8.50;;;5.30;;
30307;SDS011;17114;52.314;8.910;2023-07-24T06:12:55;12.40;;;4.97;;
30307;SDS011;17114;52.314;8.910;2023-07-24T06:15:22;10.27;;;5.55;;
30307;SDS011;17114;52.314;8.910;2023-07-24T06:17:49;7.68;;;4.80;;
30307;SDS011;17114;52.314;8.910;2023-07-24T06:20:20;9.88;;;4.20;;
30307;SDS011;17114;52.314;8.910;2023-07-24T06:22:47;8.57;;;4.10;;
30307;SDS011;17114;52.314;8.910;2023-07-24T06:25:14;5.45;;;3.33;;
30307;SDS011;17114;52.314;8.910;2023-07-24T06:27:41;7.68;;;3.00;;
30307;SDS011;17114;52.314;8.910;2023-07-24T06:30:07;6.65;;;3.35;;
30307;SDS011;17114;52.314;8.910;2023-07-24T06:32:41;4.43;;;3.53;;
30307;SDS011;17114;52.314;8.910;2023-07-24T06:35:12;6.57;;;3.90;;
30307;SDS011;17114;52.314;8.910;2023-07-24T06:37:40;7.90;;;4.20;;
30307;SDS011;17114;52.314;8.910;2023-07-24T06:40:08;6.30;;;4.28;;
30307;SDS011;17114;52.314;8.910;2023-07-24T06:42:38;7.80;;;4.28;;
30307;SDS011;17114;52.314;8.910;2023-07-24T06:45:06;5.30;;;3.88;;
30307;SDS011;17114;52.314;8.910;2023-07-24T06:47:35;7.80;;;4.63;;
30307;SDS011;17114;52.314;8.910;2023-07-24T06:50:02;8.45;;;4.30;;
30307;SDS011;17114;52.314;8.910;2023-07-24T06:52:34;5.15;;;3.90;;
30307;SDS011;17114;52.314;8.910;2023-07-24T06:55:00;6.35;;;4.22;;
30307;SDS011;17114;52.314;8.910;2023-07-24T06:57:28;5.63;;;4.15;;
30307;SDS011;17114;52.314;8.910;2023-07-24T06:59:55;5.32;;;4.15;;
30307;SDS011;17114;52.314;8.910;2023-07-24T07:02:22;8.25;;;4.30;;
30307;SDS011;17114;52.314;8.910;2023-07-24T07:04:49;7.57;;;4.03;;
30307;SDS011;17114;52.314;8.910;2023-07-24T07:07:16;8.48;;;4.60;;
30307;SDS011;17114;52.314;8.910;2023-07-24T07:09:43;6.65;;;4.03;;
30307;SDS011;17114;52.314;8.910;2023-07-24T07:12:10;6.20;;;3.85;;
30307;SDS011;17114;52.314;8.910;2023-07-24T07:14:36;6.00;;;3.88;;
30307;SDS011;17114;52.314;8.910;2023-07-24T07:17:03;4.47;;;3.15;;
30307;SDS011;17114;52.314;8.910;2023-07-24T07:19:30;6.72;;;3.75;;
30307;SDS011;17114;52.314;8.910;2023-07-24T07:21:57;6.32;;;4.45;;
30307;SDS011;17114;52.314;8.910;2023-07-24T07:24:24;8.25;;;4.97;;
30307;SDS011;17114;52.314;8.910;2023-07-24T07:26:51;7.22;;;3.80;;
30307;SDS011;17114;52.314;8.910;2023-07-24T07:29:18;5.25;;;4.00;;
30307;SDS011;17114;52.314;8.910;2023-07-24T07:31:49;5.68;;;3.92;;
30307;SDS011;17114;52.314;8.910;2023-07-24T07:34:16;6.88;;;4.03;;
30307;SDS011;17114;52.314;8.910;2023-07-24T07:36:43;5.13;;;3.90;;
30307;SDS011;17114;52.314;8.910;2023-07-24T07:39:11;8.10;;;4.35;;
30307;SDS011;17114;52.314;8.910;2023-07-24T07:41:40;6.68;;;4.07;;
30307;SDS011;17114;52.314;8.910;2023-07-24T07:44:07;5.85;;;4.20;;
30307;SDS011;17114;52.314;8.910;2023-07-24T07:46:34;6.35;;;4.30;;
30307;SDS011;17114;52.314;8.910;2023-07-24T07:49:00;5.78;;;4.03;;
30307;SDS011;17114;52.314;8.910;2023-07-24T07:51:28;6.85;;;4.50;;
30307;SDS011;17114;52.314;8.910;2023-07-24T07:53:55;8.65;;;4.93;;
30307;SDS011;17114;52.314;8.910;2023-07-24T07:56:27;7.90;;;5.70;;
30307;SDS011;17114;52.314;8.910;2023-07-24T07:58:55;7.47;;;5.22;;
30307;SDS011;17114;52.314;8.910;2023-07-24T08:01:22;5.90;;;5.30;;
30307;SDS011;17114;52.314;8.910;2023-07-24T08:03:48;7.25;;;5.50;;
30307;SDS011;17114;52.314;8.910;2023-07-24T08:06:15;11.35;;;7.03;;
30307;SDS011;17114;52.314;8.910;2023-07-24T08:08:42;10.45;;;6.53;;
30307;SDS011;17114;52.314;8.910;2023-07-24T08:11:09;8.63;;;6.60;;
30307;SDS011;17114;52.314;8.910;2023-07-24T08:13:36;7.20;;;6.47;;
30307;SDS011;17114;52.314;8.910;2023-07-24T08:16:03;10.77;;;6.72;;
30307;SDS011;17114;52.314;8.910;2023-07-24T08:18:30;9.85;;;7.28;;
30307;SDS011;17114;52.314;8.910;2023-07-24T08:20:57;8.90;;;7.30;;
30307;SDS011;17114;52.314;8.910;2023-07-24T08:23:24;8.52;;;6.88;;
30307;SDS011;17114;52.314;8.910;2023-07-24T08:25:52;7.78;;;6.88;;
30307;SDS011;17114;52.314;8.910;2023-07-24T08:28:19;7.85;;;6.85;;
30307;SDS011;17114;52.314;8.910;2023-07-24T08:30:55;9.00;;;7.18;;
30307;SDS011;17114;52.314;8.910;2023-07-24T08:33:24;8.07;;;7.28;;
30307;SDS011;17114;52.314;8.910;2023-07-24T08:36:04;10.80;;;7.82;;
30307;SDS011;17114;52.314;8.910;2023-07-24T08:38:33;9.45;;;8.25;;
30307;SDS011;17114;52.314;8.910;2023-07-24T08:41:04;9.82;;;7.25;;
30307;SDS011;17114;52.314;8.910;2023-07-24T08:43:39;7.95;;;7.25;;
30307;SDS011;17114;52.314;8.910;2023-07-24T08:46:08;10.70;;;7.60;;
30307;SDS011;17114;52.314;8.910;2023-07-24T08:48:36;8.38;;;7.38;;
30307;SDS011;17114;52.314;8.910;2023-07-24T08:51:11;11.38;;;8.15;;
30307;SDS011;17114;52.314;8.910;2023-07-24T08:53:40;10.60;;;6.90;;
30307;SDS011;17114;52.314;8.910;2023-07-24T08:56:08;8.13;;;7.00;;
30307;SDS011;17114;52.314;8.910;2023-07-24T08:58:40;13.38;;;7.10;;
30307;SDS011;17114;52.314;8.910;2023-07-24T09:01:07;8.43;;;6.93;;
30307;SDS011;17114;52.314;8.910;2023-07-24T09:03:35;8.00;;;7.20;;
30307;SDS011;17114;52.314;8.910;2023-07-24T09:06:03;9.95;;;7.50;;
30307;SDS011;17114;52.314;8.910;2023-07-24T09:08:32;9.40;;;8.25;;
30307;SDS011;17114;52.314;8.910;2023-07-24T09:11:00;10.10;;;8.13;;
30307;SDS011;17114;52.314;8.910;2023-07-24T09:13:29;9.93;;;7.93;;
30307;SDS011;17114;52.314;8.910;2023-07-24T09:15:56;11.60;;;9.82;;
30307;SDS011;17114;52.314;8.910;2023-07-24T09:18:40;10.55;;;8.60;;
30307;SDS011;17114;52.314;8.910;2023-07-24T09:21:09;9.70;;;8.75;;
30307;SDS011;17114;52.314;8.910;2023-07-24T09:23:39;11.90;;;9.63;;
30307;SDS011;17114;52.314;8.910;2023-07-24T09:26:07;9.80;;;8.02;;
30307;SDS011;17114;52.314;8.910;2023-07-24T09:28:34;10.48;;;8.40;;
30307;SDS011;17114;52.314;8.910;2023-07-24T09:31:02;8.57;;;7.75;;
30307;SDS011;17114;52.314;8.910;2023-07-24T09:33:38;8.38;;;7.55;;
30307;SDS011;17114;52.314;8.910;2023-07-24T09:36:07;10.02;;;7.90;;
30307;SDS011;17114;52.314;8.910;2023-07-24T09:38:35;9.63;;;8.68;;
30307;SDS011;17114;52.314;8.910;2023-07-24T09:41:03;9.65;;;8.25;;
30307;SDS011;17114;52.314;8.910;2023-07-24T09:43:31;12.15;;;8.60;;
30307;SDS011;17114;52.314;8.910;2023-07-24T09:46:06;9.10;;;8.20;;
30307;SDS011;17114;52.314;8.910;2023-07-24T09:48:33;9.45;;;8.38;;
30307;SDS011;17114;52.314;8.910;2023-07-24T09:51:08;12.63;;;8.63;;
30307;SDS011;17114;52.314;8.910;2023-07-24T09:53:41;9.27;;;8.23;;
30307;SDS011;17114;52.314;8.910;2023-07-24T09:56:14;12.30;;;8.77;;
30307;SDS011;17114;52.314;8.910;2023-07-24T09:58:44;10.13;;;7.85;;
30307;SDS011;17114;52.314;8.910;2023-07-24T10:01:11;12.27;;;8.45;;
30307;SDS011;17114;52.314;8.910;2023-07-24T10:03:39;13.05;;;8.65;;
30307;SDS011;17114;52.314;8.910;2023-07-24T10:06:09;10.20;;;7.82;;
30307;SDS011;17114;52.314;8.910;2023-07-24T10:08:41;11.32;;;7.80;;
30307;SDS011;17114;52.314;8.910;2023-07-24T10:11:09;9.77;;;7.43;;
30307;SDS011;17114;52.314;8.910;2023-07-24T10:13:38;11.07;;;8.38;;
30307;SDS011;17114;52.314;8.910;2023-07-24T10:16:06;12.38;;;8.63;;
30307;SDS011;17114;52.314;8.910;2023-07-24T10:18:34;10.75;;;9.25;;
30307;SDS011;17114;52.314;8.910;2023-07-24T10:21:08;14.50;;;11.00;;
30307;SDS011;17114;52.314;8.910;2023-07-24T10:23:43;12.57;;;10.73;;
30307;SDS011;17114;52.314;8.910;2023-07-24T10:26:12;12.10;;;10.82;;
30307;SDS011;17114;52.314;8.910;2023-07-24T10:28:42;9.98;;;9.07;;
30307;SDS011;17114;52.314;8.910;2023-07-24T10:31:19;9.75;;;8.75;;
30307;SDS011;17114;52.314;8.910;2023-07-24T10:33:50;7.95;;;7.10;;
30307;SDS011;17114;52.314;8.910;2023-07-24T10:36:18;7.28;;;6.30;;
30307;SDS011;17114;52.314;8.910;2023-07-24T10:38:46;7.50;;;6.80;;
30307;SDS011;17114;52.314;8.910;2023-07-24T10:41:19;6.10;;;5.50;;
30307;SDS011;17114;52.314;8.910;2023-07-24T10:43:50;6.85;;;5.38;;
30307;SDS011;17114;52.314;8.910;2023-07-24T10:46:19;4.88;;;4.35;;
30307;SDS011;17114;52.314;8.910;2023-07-24T10:48:47;5.65;;;3.65;;
30307;SDS011;17114;52.314;8.910;2023-07-24T10:51:15;3.03;;;2.53;;
30307;SDS011;17114;52.314;8.910;2023-07-24T10:53:44;4.03;;;2.63;;
30307;SDS011;17114;52.314;8.910;2023-07-24T10:56:15;2.72;;;2.30;;
30307;SDS011;17114;52.314;8.910;2023-07-24T10:58:43;2.88;;;2.50;;
30307;SDS011;17114;52.314;8.910;2023-07-24T11:01:10;6.72;;;2.25;;
30307;SDS011;17114;52.314;8.910;2023-07-24T11:03:41;2.28;;;1.95;;
30307;SDS011;17114;52.314;8.910;2023-07-24T11:06:15;2.05;;;1.70;;
30307;SDS011;17114;52.314;8.910;2023-07-24T11:08:50;4.03;;;1.92;;
30307;SDS011;17114;52.314;8.910;2023-07-24T11:11:18;2.00;;;1.70;;
30307;SDS011;17114;52.314;8.910;2023-07-24T11:13:45;2.08;;;1.77;;
30307;SDS011;17114;52.314;8.910;2023-07-24T11:16:12;2.13;;;1.83;;
30307;SDS011;17114;52.314;8.910;2023-07-24T11:18:45;2.75;;;1.70;;
30307;SDS011;17114;52.314;8.910;2023-07-24T11:21:20;4.22;;;1.77;;
30307;SDS011;17114;52.314;8.910;2023-07-24T11:23:48;2.40;;;1.88;;
30307;SDS011;17114;52.314;8.910;2023-07-24T11:26:18;2.30;;;1.80;;
30307;SDS011;17114;52.314;8.910;2023-07-24T11:28:46;3.55;;;1.88;;
30307;SDS011;17114;52.314;8.910;2023-07-24T11:31:13;3.72;;;1.95;;
30307;SDS011;17114;52.314;8.910;2023-07-24T11:33:41;2.70;;;1.83;;
30307;SDS011;17114;52.314;8.910;2023-07-24T11:36:09;4.47;;;1.80;;
30307;SDS011;17114;52.314;8.910;2023-07-24T11:38:36;3.05;;;1.83;;
30307;SDS011;17114;52.314;8.910;2023-07-24T11:41:05;2.13;;;1.50;;
30307;SDS011;17114;52.314;8.910;2023-07-24T11:43:32;4.30;;;2.15;;
30307;SDS011;17114;52.314;8.910;2023-07-24T11:45:59;2.70;;;1.80;;
30307;SDS011;17114;52.314;8.910;2023-07-24T11:48:25;2.47;;;2.00;;
30307;SDS011;17114;52.314;8.910;2023-07-24T11:50:53;4.63;;;2.38;;
30307;SDS011;17114;52.314;8.910;2023-07-24T11:53:22;4.10;;;2.20;;
30307;SDS011;17114;52.314;8.910;2023-07-24T11:55:54;2.40;;;2.10;;
30307;SDS011;17114;52.314;8.910;2023-07-24T11:58:25;3.08;;;2.15;;
30307;SDS011;17114;52.314;8.910;2023-07-24T12:00:52;3.55;;;2.17;;
30307;SDS011;17114;52.314;8.910;2023-07-24T12:03:20;3.85;;;2.50;;
30307;SDS011;17114;52.314;8.910;2023-07-24T12:05:49;3.35;;;2.40;;
30307;SDS011;17114;52.314;8.910;2023-07-24T12:08:19;2.70;;;2.22;;
30307;SDS011;17114;52.314;8.910;2023-07-24T12:10:50;4.30;;;2.08;;
30307;SDS011;17114;52.314;8.910;2023-07-24T12:13:17;3.20;;;1.98;;
30307;SDS011;17114;52.314;8.910;2023-07-24T12:15:47;2.67;;;2.20;;
30307;SDS011;17114;52.314;8.910;2023-07-24T12:18:14;2.20;;;1.63;;
30307;SDS011;17114;52.314;8.910;2023-07-24T12:20:41;4.85;;;2.10;;
30307;SDS011;17114;52.314;8.910;2023-07-24T12:23:08;2.20;;;1.75;;
30307;SDS011;17114;52.314;8.910;2023-07-24T12:25:35;5.82;;;2.30;;
30307;SDS011;17114;52.314;8.910;2023-07-24T12:28:02;3.65;;;1.98;;
30307;SDS011;17114;52.314;8.910;2023-07-24T12:30:29;2.50;;;2.08;;
30307;SDS011;17114;52.314;8.910;2023-07-24T12:32:56;3.60;;;2.53;;
30307;SDS011;17114;52.314;8.910;2023-07-24T12:35:23;2.70;;;2.20;;
30307;SDS011;17114;52.314;8.910;2023-07-24T12:37:50;4.35;;;2.47;;
30307;SDS011;17114;52.314;8.910;2023-07-24T12:40:16;2.30;;;2.08;;
30307;SDS011;17114;52.314;8.910;2023-07-24T12:42:43;5.18;;;2.80;;
30307;SDS011;17114;52.314;8.910;2023-07-24T12:45:10;3.72;;;2.28;;
30307;SDS011;17114;52.314;8.910;2023-07-24T12:47:37;3.10;;;2.42;;
30307;SDS011;17114;52.314;8.910;2023-07-24T12:50:04;2.65;;;2.22;;
30307;SDS011;17114;52.314;8.910;2023-07-24T12:52:33;3.05;;;2.40;;
30307;SDS011;17114;52.314;8.910;2023-07-24T12:55:00;4.35;;;2.40;;
30307;SDS011;17114;52.314;8.910;2023-07-24T12:57:28;4.35;;;2.70;;
30307;SDS011;17114;52.314;8.910;2023-07-24T12:59:55;4.57;;;2.80;;
30307;SDS011;17114;52.314;8.910;2023-07-24T13:02:22;3.25;;;2.90;;
30307;SDS011;17114;52.314;8.910;2023-07-24T13:04:49;3.10;;;2.53;;
30307;SDS011;17114;52.314;8.910;2023-07-24T13:07:16;4.80;;;3.03;;
30307;SDS011;17114;52.314;8.910;2023-07-24T13:09:43;4.20;;;3.10;;
30307;SDS011;17114;52.314;8.910;2023-07-24T13:12:11;3.80;;;3.40;;
30307;SDS011;17114;52.314;8.910;2023-07-24T13:14:38;4.22;;;3.60;;
30307;SDS011;17114;52.314;8.910;2023-07-24T13:17:08;4.30;;;3.60;;
30307;SDS011;17114;52.314;8.910;2023-07-24T13:19:35;3.78;;;3.42;;
30307;SDS011;17114;52.314;8.910;2023-07-24T13:22:02;4.95;;;3.97;;
30307;SDS011;17114;52.314;8.910;2023-07-24T13:24:30;5.03;;;3.83;;
30307;SDS011;17114;52.314;8.910;2023-07-24T13:26:58;4.75;;;3.83;;
30307;SDS011;17114;52.314;8.910;2023-07-24T13:29:27;6.50;;;4.57;;
30307;SDS011;17114;52.314;8.910;2023-07-24T13:31:55;6.80;;;4.78;;
30307;SDS011;17114;52.314;8.910;2023-07-24T13:34:23;5.90;;;5.40;;
30307;SDS011;17114;52.314;8.910;2023-07-24T13:36:50;7.28;;;5.82;;
30307;SDS011;17114;52.314;8.910;2023-07-24T13:39:17;7.20;;;6.18;;
30307;SDS011;17114;52.314;8.910;2023-07-24T13:41:44;7.35;;;6.15;;
30307;SDS011;17114;52.314;8.910;2023-07-24T13:44:11;9.70;;;7.43;;
30307;SDS011;17114;52.314;8.910;2023-07-24T13:46:38;10.88;;;7.13;;
30307;SDS011;17114;52.314;8.910;2023-07-24T13:49:06;11.30;;;7.43;;
30307;SDS011;17114;52.314;8.910;2023-07-24T13:51:33;11.07;;;6.95;;
30307;SDS011;17114;52.314;8.910;2023-07-24T13:54:00;8.02;;;7.10;;
30307;SDS011;17114;52.314;8.910;2023-07-24T13:56:28;8.05;;;7.05;;
30307;SDS011;17114;52.314;8.910;2023-07-24T13:58:59;8.02;;;6.90;;
30307;SDS011;17114;52.314;8.910;2023-07-24T14:01:26;9.18;;;7.50;;
30307;SDS011;17114;52.314;8.910;2023-07-24T14:03:53;8.80;;;7.47;;
30307;SDS011;17114;52.314;8.910;2023-07-24T14:06:20;8.95;;;7.22;;
30307;SDS011;17114;52.314;8.910;2023-07-24T14:08:47;8.35;;;6.78;;
30307;SDS011;17114;52.314;8.910;2023-07-24T14:11:14;9.10;;;6.60;;
30307;SDS011;17114;52.314;8.910;2023-07-24T14:13:41;7.70;;;6.90;;
30307;SDS011;17114;52.314;8.910;2023-07-24T14:16:08;7.60;;;6.85;;
30307;SDS011;17114;52.314;8.910;2023-07-24T14:18:35;7.65;;;6.50;;
30307;SDS011;17114;52.314;8.910;2023-07-24T14:21:01;7.18;;;6.47;;
30307;SDS011;17114;52.314;8.910;2023-07-24T14:23:28;8.30;;;5.80;;
30307;SDS011;17114;52.314;8.910;2023-07-24T14:25:55;7.65;;;5.65;;
30307;SDS011;17114;52.314;8.910;2023-07-24T14:28:22;11.63;;;6.03;;
30307;SDS011;17114;52.314;8.910;2023-07-24T14:30:49;7.22;;;5.65;;
30307;SDS011;17114;52.314;8.910;2023-07-24T14:33:16;6.25;;;5.60;;
30307;SDS011;17114;52.314;8.910;2023-07-24T14:35:42;7.35;;;5.15;;
30307;SDS011;17114;52.314;8.910;2023-07-24T14:38:09;7.30;;;5.20;;
30307;SDS011;17114;52.314;8.910;2023-07-24T14:40:36;5.28;;;4.32;;
30307;SDS011;17114;52.314;8.910;2023-07-24T14:43:03;5.82;;;4.32;;
30307;SDS011;17114;52.314;8.910;2023-07-24T14:45:33;5.35;;;3.85;;
30307;SDS011;17114;52.314;8.910;2023-07-24T14:48:00;5.00;;;3.83;;
30307;SDS011;17114;52.314;8.910;2023-07-24T14:50:27;6.43;;;3.70;;
30307;SDS011;17114;52.314;8.910;2023-07-24T14:52:54;5.28;;;3.25;;
30307;SDS011;17114;52.314;8.910;2023-07-24T14:55:21;4.13;;;3.50;;